Etusivu
METAR-TAF:

METAR-TAF

Lentoasemat :

Kraljevo, Serbia

Leveyspiiri: 43-49-07N, Pituuspiiri: 020-35-07E, korkeus merenpinnasta: 209 m

Tämänhetkinen sää

Tämä raportti tehtiin 37 minuuttia sitten, kello 18.00 UTC
Tuuli 5 kn idästä/kaakosta
Lämpötila 14°C
Kosteus 19%
Ilmanpaine 1024 hPa
Näkyvyys 10 km tai enemmän
ei pilviä alle 1500 m:ssä eikä cumulonimbus-pilviä

METAR: LYKV 081800Z 12005KT CAVOK 14/M09 Q1024 NOSIG

Aika: 20:37 (18:37 UTC)

Sääennuste

Tämä raportti tehtiin 1 tunti ja 37 minuuttia sitten, kello 17.00 UTC
Ennuste voimassa 08. päivästä klo 18 UTC - 09. päivään klo 18 UTC
Tuuli 5 kn idästä
Näkyvyys 10 km tai enemmän
ei pilviä alle 1500 m:ssä eikä cumulonimbus-pilviä

TAF: LYKV 081700Z 0818/0918 08005KT CAVOK TX22/0913Z TNM02/0904Z

Säähavainnot ja -ennusteet yli 4000 lentoasemalta (METAR- ja TAF-raportit).

Käytössä olevat sääasemat on merkitty karttaan keltaisilla ja punaisilla pisteillä.

Aseta hiiri pisteen päälle nähdäksesi sääaseman nimen.

Klikkaa sitten nähdäksesi säähavainnot ja -ennusteet.

Kartan vaihtaminen: klikkaa mustalla rastilla varustettuja vihreitä pisteitä, niin voit zoomata sisään; viivalla varustettua vihreää pistettä, niin voit zoomata ulos tai vihreitä nuolia, niin pääset viereisille kartoille.


METAR-TAF: